Archival Weather

Yacuiba

Yacuiba, Bolivia (SLYA)

Report from: Thursday, December 7, 2023 4:00 PM -04
Current time: Tuesday, April 23, 2024 2:48 AM -04

Current weather – Weather history – Daily summaries
Weather forecast

Temperature28.0°C (82.4°F)
Heat index30.4°C (86.6°F)
Dew point21.0°C (69.8°F)
Winds 6 kts (3.1 m/s, 6.9 mph) South-Southwest (210°)
Visibility6.2 mi. (10 km)
Clouds Scattered clouds 2,300 ft. (701 m)
Ceiling: Broken clouds 7,000 ft. (2,134 m)
Altimeter29.88 in.Hg (1012 mB)
Relative humidity66 %
Density altitude1,874 ft. (571 m)
Flight conditions Visual Meteorological Conditions
Raw dataSLYA 072000Z 21006KT 9999 SCT023 BKN070 28/21 Q1012
An error has occurred. This application may no longer respond until reloaded. Reload 🗙